Flight Track Log - Related Links

Times and Time Zones

All times are in EDT time to prevent confusion due to time zone crossing. See the RPA3228 flight status page for this flight to view local times or setup timezone preferences in your user account.

Time Position Orientation Groundspeed Altitude Reporting Facility
EDT Latitude Longitude Course Direction KTS MPH feet Rate Location/Type
Sun 10:27:37 AM 38.9000 -77.0833 83° East 180 207 2,300  Level Potomac TRACON
Sun 10:28:37 AM 38.9500 -77.1333 322° Northwest 242 278 4,800 3,200 Climbing Potomac TRACON
Sun 10:29:00 AM 39.0062 -76.5876 57° Northeast  Level FlightAware Approximate
Sun 10:29:37 AM 39.0000 -77.1833 322° Northwest 241 277 8,700  Level Potomac TRACON
Sun 10:30:00 AM 39.0498 -76.4756 63° Northeast  Level FlightAware Approximate
Sun 10:31:00 AM 39.0959 -76.3651 61° Northeast  Level FlightAware Approximate
Sun 10:31:36 AM 39.0444 -77.0322 69° East 245 282 12,700  Level Washington Center
Sun 10:32:00 AM 39.1252 -76.2497 57° Northeast  Level FlightAware Approximate
Sun 10:32:36 AM 39.0294 -76.8928 98° East 299 344 14,600  Level Washington Center
Sun 10:33:00 AM 39.1579 -76.1383 83° East  Level FlightAware Approximate
Sun 10:33:36 AM 39.0642 -76.7331 74° East 360 414 16,900  Level Washington Center
Sun 10:34:36 AM 39.0928 -76.5839 76° East 398 458 18,700 1,800 Climbing Washington Center
Sun 10:35:36 AM 39.1169 -76.4264 79° East 425 489 20,500 1,850 Climbing Washington Center
Sun 10:36:36 AM 39.1469 -76.2686 76° East 440 506 22,400 1,250 Climbing Washington Center
Sun 10:37:36 AM 39.1686 -76.1056 80° East 451 519 23,000 300 Climbing Washington Center
Sun 10:38:36 AM 39.1858 -75.9397 82° East 463 533 23,000 350 Level Washington Center
Sun 10:39:36 AM 39.2528 -75.8061 57° Northeast 437 503 23,700 1,100 Climbing Washington Center
Sun 10:40:36 AM 39.3425 -75.6881 45° Northeast 437 503 25,200 1,400 Climbing Washington Center
Sun 10:41:36 AM 39.4344 -75.5728 44° Northeast 437 503 26,500 1,200 Climbing Washington Center
Sun 10:42:36 AM 39.5239 -75.4517 46° Northeast 449 517 27,600 1,000 Climbing Washington Center
Sun 10:43:36 AM 39.6194 -75.3275 45° Northeast 454 522 28,500 1,000 Climbing Washington Center
Sun 10:44:36 AM 39.7128 -75.1978 47° Northeast 467 537 29,600 1,213 Climbing Washington Center
Sun 10:45:10 AM 39.7622 -75.1269 48° Northeast 492 566 30,400 1,074 Climbing New York Center
Sun 10:46:11 AM 39.8436 -75.0103 48° Northeast 500 575 31,300 750 Climbing New York Center
Sun 10:47:10 AM 39.9356 -74.8806 47° Northeast 500 575 31,900 700 Climbing New York Center
Sun 10:48:11 AM 40.0367 -74.7344 48° Northeast 494 568 32,700 541 Climbing New York Center
Sun 10:49:12 AM 40.1336 -74.6397 37° Northeast 476 548 33,000 151 Climbing New York Center
Sun 10:50:10 AM 40.2622 -74.5925 16° North 456 525 33,000  Level New York Center
Sun 10:52:15 AM 40.4972 -74.5222 13° North 447 514 33,000  Level Boston Center
Sun 10:53:12 AM 40.6186 -74.4853 13° North 447 514 33,000  Level Boston Center
Sun 10:54:25 AM 40.7403 -74.4453 14° North 447 514 33,000  Level Boston Center
Sun 10:55:26 AM 40.8869 -74.4003 13° North 452 520 33,000  Level Boston Center
Sun 10:56:26 AM 41.0231 -74.3631 12° North 452 520 33,000  Level Boston Center
Sun 10:57:26 AM 41.1467 -74.3256 13° North 447 514 33,000  Level Boston Center
Sun 10:58:27 AM 41.2431 -74.2925 14° North 447 514 33,000  Level Boston Center
Sun 10:59:25 AM 41.3750 -74.2492 14° North 447 514 33,000  Level Boston Center
Sun 11:00:25 AM 41.5008 -74.2086 14° North 452 520 33,000  Level Boston Center
Sun 11:01:25 AM 41.6411 -74.1653 13° North 452 520 33,000  Level Boston Center
Sun 11:02:26 AM 41.7583 -74.1267 14° North 447 514 33,000  Level Boston Center
Sun 11:03:26 AM 41.8672 -74.0933 13° North 441 507 33,000  Level Boston Center
Sun 11:04:27 AM 42.0014 -74.0519 13° North 441 507 33,000  Level Boston Center
Sun 11:05:27 AM 42.1269 -74.0133 13° North 446 513 33,000  Level Boston Center
Sun 11:06:26 AM 42.2506 -73.9714 14° North 452 520 33,000  Level Boston Center
Sun 11:07:26 AM 42.3781 -73.9297 14° North 452 520 33,000 -738 Level Boston Center
Sun 11:08:36 AM 42.4994 -73.8875 14° North 452 520 31,400 -916 Descending Boston Center
Sun 11:09:37 AM 42.6461 -73.8403 13° North 447 514 31,000 -198 Descending Boston Center
Sun 11:10:37 AM 42.7717 -73.7978 14° North 452 520 31,000  Level Boston Center
Sun 11:11:38 AM 42.8931 -73.7494 16° North 452 520 31,000  Level Boston Center
Sun 11:12:39 AM 43.0186 -73.7039 15° North 458 527 31,000  Level Boston Center
Sun 11:13:39 AM 43.1169 -73.6689 15° North 458 527 31,000 -1,128 Level Boston Center
Sun 11:14:36 AM 43.2508 -73.6203 15° North 453 521 28,800 -1,780 Descending Boston Center
Sun 11:15:37 AM 43.3703 -73.5711 17° North 453 521 27,500 -1,835 Descending Boston Center
Sun 11:16:37 AM 43.4894 -73.5306 14° North 447 514 25,100 -2,678 Descending Boston Center
Sun 11:17:38 AM 43.6003 -73.4894 15° North 426 490 22,100 -3,570 Descending Boston Center
Sun 11:18:38 AM 43.7153 -73.4456 15° North 403 464 17,900 -3,521 Descending Boston Center
Sun 11:19:39 AM 43.8133 -73.4067 16° North 374 430 15,000 -3,100 Descending Boston Center
Sun 11:20:38 AM 43.9117 -73.3708 15° North 359 413 11,700 -2,017 Descending Boston Center
Sun 11:21:38 AM 44.0036 -73.3347 16° North 354 407 11,000 -504 Descending Boston Center
Sun 11:22:37 AM 44.0914 -73.3014 15° North 333 383 10,700 -1,008 Descending Boston Center
Sun 11:23:37 AM 44.1667 -73.2708 16° North 300 345 9,000 -1,587 Descending Boston Center
Sun 11:24:38 AM 44.2394 -73.2861 351° North 272 313 7,500 -1,398 Descending Boston Center
Sun 11:25:50 AM 44.3183 -73.3106 348° North 263 303 5,900 -1,263 Descending Boston Center
Sun 11:26:51 AM 44.3869 -73.3289 349° North 258 297 4,700 -942 Descending Boston Center
Sun 11:27:51 AM 44.4536 -73.3503 347° North 258 297 4,000 -458 Descending Boston Center
Sun 11:28:49 AM 44.5139 -73.3686 348° North 235 270 3,800 -756 Descending Boston Center
Sun 11:29:50 AM 44.5661 -73.3519 13° North 199 229 2,500 -1,279 Descending Boston Center

Login

Don't have an account? Register now (free) for customized features, flight alerts, and more!